Time;durP1;ratioP1;P1;durP2;ratioP2;P2;SDS_P1;SDS_P2;PMS_P1;PMS_P2;Temp;Humidity;BMP_temperature;BMP_pressure;BME280_temperature;BME280_humidity;BME280_pressure;Samples;Min_cycle;Max_cycle;Signal;HPM_P1;HPM_P2
2021/05/20 00:04:00;;;;;;;19.55;10.13;;;;;;;13.59;100.00;98779.30;4191204;84;28528;-79
2021/05/20 00:10:05;;;;;;;16.00;9.85;;;;;;;13.48;100.00;98768.94;4199718;84;28502;-78
2021/05/20 00:16:07;;;;;;;15.95;9.85;;;;;;;13.42;100.00;98775.32;4187666;84;28510;-78
2021/05/20 00:22:08;;;;;;;19.02;10.35;;;;;;;13.54;100.00;98779.25;4213629;82;28557;-78
2021/05/20 00:28:09;;;;;;;20.65;10.10;;;;;;;13.33;100.00;98776.85;4274795;82;28508;-78
2021/05/20 00:34:10;;;;;;;18.82;9.80;;;;;;;13.28;100.00;98781.70;4256024;82;28516;-80
2021/05/20 00:40:13;;;;;;;18.35;10.95;;;;;;;13.53;100.00;98775.72;4262794;82;28528;-81
2021/05/20 00:46:15;;;;;;;18.52;10.15;;;;;;;13.67;100.00;98779.36;4276265;82;28587;-81
2021/05/20 00:52:16;;;;;;;18.17;9.93;;;;;;;13.30;100.00;98793.57;4272106;82;28564;-80
2021/05/20 00:58:19;;;;;;;17.98;9.10;;;;;;;13.21;100.00;98788.63;4271967;82;28490;-79
2021/05/20 01:04:20;;;;;;;17.12;10.43;;;;;;;13.10;100.00;98792.30;4277135;82;28519;-79
2021/05/20 01:10:22;;;;;;;22.05;11.08;;;;;;;13.25;100.00;98792.98;4271187;82;28545;-79
2021/05/20 01:16:23;;;;;;;15.63;9.25;;;;;;;12.96;100.00;98793.22;4187337;84;28484;-79
2021/05/20 01:22:25;;;;;;;16.65;9.13;;;;;;;13.00;100.00;98794.88;4279704;81;28560;-79
2021/05/20 01:28:28;;;;;;;14.73;8.73;;;;;;;13.01;100.00;98806.78;4232413;82;28498;-78
2021/05/20 01:34:32;;;;;;;17.95;10.30;;;;;;;12.89;100.00;98803.41;4326351;80;28531;-79
2021/05/20 01:40:33;;;;;;;15.83;9.85;;;;;;;12.99;100.00;98799.48;4346187;80;28581;-78
2021/05/20 01:46:34;;;;;;;17.12;10.38;;;;;;;12.91;100.00;98793.17;4334241;80;28485;-79
2021/05/20 01:52:35;;;;;;;19.48;10.32;;;;;;;12.87;100.00;98796.11;4349261;80;28543;-79
2021/05/20 01:58:37;;;;;;;14.47;8.88;;;;;;;12.77;100.00;98796.27;4361758;81;29605;-77
2021/05/20 02:04:39;;;;;;;15.48;9.10;;;;;;;12.92;100.00;98794.28;4346562;81;28539;-77
2021/05/20 02:10:40;;;;;;;18.32;9.73;;;;;;;12.70;100.00;98801.03;4348673;81;28496;-78
2021/05/20 02:16:42;;;;;;;17.05;9.05;;;;;;;12.68;100.00;98805.86;4354494;81;28547;-78
2021/05/20 02:22:43;;;;;;;16.97;9.33;;;;;;;12.47;100.00;98805.59;4327155;81;28516;-78
2021/05/20 02:28:45;;;;;;;13.62;8.33;;;;;;;12.19;100.00;98802.52;4322324;81;28564;-78
2021/05/20 02:34:46;;;;;;;15.45;8.40;;;;;;;12.07;100.00;98805.30;4300833;81;28496;-80
2021/05/20 02:40:47;;;;;;;14.75;7.67;;;;;;;12.07;100.00;98810.69;4348934;81;28523;-80
2021/05/20 02:46:49;;;;;;;16.07;9.23;;;;;;;12.00;100.00;98802.75;4331960;81;28488;-78
2021/05/20 02:52:51;;;;;;;15.08;9.35;;;;;;;11.83;100.00;98814.33;4333038;81;28533;-79
2021/05/20 02:58:52;;;;;;;16.37;8.05;;;;;;;11.96;100.00;98820.45;4345694;81;28514;-79
2021/05/20 03:04:53;;;;;;;12.75;7.60;;;;;;;11.77;100.00;98822.58;4322032;80;28490;-78
2021/05/20 03:10:56;;;;;;;14.38;7.85;;;;;;;11.82;100.00;98828.06;4174519;83;28511;-79
2021/05/20 03:16:57;;;;;;;14.53;8.25;;;;;;;11.98;100.00;98840.70;4185227;84;28556;-79
2021/05/20 03:22:59;;;;;;;16.23;9.35;;;;;;;12.06;100.00;98844.89;4181497;83;28525;-80
2021/05/20 03:29:00;;;;;;;15.83;8.63;;;;;;;12.09;100.00;98854.37;4166493;84;28628;-80
2021/05/20 03:35:03;;;;;;;13.90;8.40;;;;;;;12.12;100.00;98852.52;4207137;84;28548;-79
2021/05/20 03:41:05;;;;;;;14.00;7.58;;;;;;;11.93;100.00;98855.45;4179533;84;28505;-79
2021/05/20 03:47:06;;;;;;;12.68;7.65;;;;;;;12.20;100.00;98860.75;4190345;83;28497;-80
2021/05/20 03:53:08;;;;;;;14.47;7.60;;;;;;;12.46;100.00;98853.02;4186467;84;28535;-80
2021/05/20 03:59:09;;;;;;;15.58;8.60;;;;;;;12.82;100.00;98861.06;4166047;84;28527;-81
2021/05/20 04:05:12;;;;;;;13.98;7.60;;;;;;;12.66;100.00;98861.39;4166841;84;28596;-78
2021/05/20 04:11:13;;;;;;;15.43;6.78;;;;;;;12.81;100.00;98867.52;4167100;84;28567;-81
2021/05/20 04:17:14;;;;;;;12.37;7.53;;;;;;;13.06;100.00;98876.99;4166831;84;28480;-81
2021/05/20 04:23:17;;;;;;;14.98;8.50;;;;;;;13.47;100.00;98880.73;4181064;84;28538;-80
2021/05/20 04:29:20;;;;;;;12.25;7.25;;;;;;;13.54;100.00;98884.58;4329570;81;28503;-81
2021/05/20 04:35:21;;;;;;;12.90;7.15;;;;;;;13.53;100.00;98882.95;4304722;81;28572;-80
2021/05/20 04:41:23;;;;;;;12.40;7.08;;;;;;;14.05;100.00;98892.89;4309664;81;28609;-81
2021/05/20 04:47:24;;;;;;;15.70;7.40;;;;;;;14.27;100.00;98899.56;4347003;80;28584;-79
2021/05/20 04:53:25;;;;;;;12.85;7.22;;;;;;;14.35;100.00;98907.72;4335693;81;28619;-80
2021/05/20 04:59:27;;;;;;;14.10;6.97;;;;;;;14.43;100.00;98898.30;4314151;80;28567;-83
2021/05/20 05:05:28;;;;;;;13.15;7.28;;;;;;;14.69;100.00;98910.66;4315612;80;28538;-80
2021/05/20 05:11:29;;;;;;;10.90;6.83;;;;;;;15.01;100.00;98913.28;4339732;80;28571;-80
2021/05/20 05:17:31;;;;;;;13.58;7.00;;;;;;;15.10;100.00;98920.91;4336363;81;28518;-79
2021/05/20 05:23:32;;;;;;;13.80;7.58;;;;;;;15.33;100.00;98925.86;4364914;80;28505;-79
2021/05/20 05:29:34;;;;;;;12.85;7.00;;;;;;;15.76;100.00;98923.54;4284136;82;28514;-80
2021/05/20 05:35:35;;;;;;;12.75;6.92;;;;;;;15.99;100.00;98926.32;4255373;82;28531;-79
2021/05/20 05:41:37;;;;;;;15.15;7.60;;;;;;;16.14;100.00;98926.05;4278452;82;28486;-77
2021/05/20 05:47:38;;;;;;;13.32;6.95;;;;;;;16.24;100.00;98930.12;4372381;80;28528;-79
2021/05/20 05:53:40;;;;;;;11.65;6.90;;;;;;;16.30;100.00;98915.48;4357439;81;28489;-77
2021/05/20 05:59:41;;;;;;;11.00;6.50;;;;;;;16.31;100.00;98927.95;4344206;81;28511;-77
2021/05/20 06:05:44;;;;;;;10.25;6.83;;;;;;;16.22;100.00;98928.22;4339564;81;28492;-77
2021/05/20 06:11:46;;;;;;;12.60;6.47;;;;;;;16.09;100.00;98933.66;4180338;84;28557;-77
2021/05/20 06:17:47;;;;;;;10.15;5.53;;;;;;;15.98;100.00;98934.19;4280572;82;28600;-77
2021/05/20 06:23:48;;;;;;;10.43;5.90;;;;;;;16.11;100.00;98942.34;4338712;81;28581;-78
2021/05/20 06:29:49;;;;;;;11.15;5.85;;;;;;;16.16;100.00;98934.75;4338648;81;28631;-78
2021/05/20 06:35:51;;;;;;;11.50;5.87;;;;;;;16.24;100.00;98946.95;4171349;84;28519;-77
2021/05/20 06:41:52;;;;;;;10.38;5.65;;;;;;;16.34;100.00;98934.74;4187801;84;28489;-77
2021/05/20 06:47:55;;;;;;;10.53;5.85;;;;;;;16.96;100.00;98936.00;4336609;81;28548;-77
2021/05/20 06:53:56;;;;;;;10.45;6.20;;;;;;;17.82;100.00;98928.86;4305615;80;28470;-75
2021/05/20 06:59:58;;;;;;;8.55;5.33;;;;;;;18.28;95.53;98925.01;4196976;85;28611;-75
2021/05/20 07:06:00;;;;;;;6.75;4.10;;;;;;;18.47;89.18;98919.66;4158275;84;28583;-77
2021/05/20 07:12:03;;;;;;;6.92;3.58;;;;;;;18.34;72.89;98930.66;4178643;84;28513;-77
2021/05/20 07:18:05;;;;;;;4.50;2.98;;;;;;;18.23;66.40;98942.19;4182562;83;28607;-77
2021/05/20 07:24:07;;;;;;;13.32;7.58;;;;;;;18.79;66.85;98926.95;4157886;84;28532;-77
2021/05/20 07:30:10;;;;;;;6.17;2.92;;;;;;;18.58;89.72;98934.53;4159456;85;28532;-78
2021/05/20 07:36:11;;;;;;;3.58;1.75;;;;;;;17.84;64.27;98934.25;4196179;84;28505;-76
2021/05/20 07:42:13;;;;;;;4.03;2.20;;;;;;;16.93;59.54;98938.45;4203820;84;28492;-77
2021/05/20 07:48:14;;;;;;;5.83;2.05;;;;;;;16.66;66.14;98954.52;4192234;84;28541;-75
2021/05/20 07:54:16;;;;;;;5.10;2.15;;;;;;;16.89;66.77;98953.12;4203973;83;28543;-76
2021/05/20 08:00:19;;;;;;;7.70;2.37;;;;;;;16.90;65.83;98950.67;4184677;85;28671;-78
2021/05/20 08:06:30;;;;;;;3.92;2.27;;;;;;;17.31;64.24;98963.36;4206041;85;28545;-77
2021/05/20 08:12:28;;;;;;;4.50;2.50;;;;;;;17.17;61.35;98955.52;4185008;85;28604;-77
2021/05/20 08:18:30;;;;;;;5.60;2.35;;;;;;;17.02;60.74;98967.23;4222643;82;28510;-77
2021/05/20 08:24:32;;;;;;;5.10;3.33;;;;;;;17.04;60.45;98961.80;4191286;84;28525;-79
2021/05/20 08:30:36;;;;;;;5.70;2.92;;;;;;;17.41;64.60;98952.45;4173827;84;28659;-78
2021/05/20 08:36:37;;;;;;;4.40;3.12;;;;;;;17.47;58.76;98976.34;4189646;83;28505;-78
2021/05/20 08:42:40;;;;;;;6.55;2.87;;;;;;;17.73;58.38;98973.48;4188948;83;28595;-79
2021/05/20 08:48:41;;;;;;;5.62;2.90;;;;;;;17.20;62.18;98976.72;4192697;83;28571;-78
2021/05/20 08:54:42;;;;;;;3.95;3.00;;;;;;;17.84;61.08;98974.25;4194153;83;28597;-78
2021/05/20 09:00:44;;;;;;;4.97;2.37;;;;;;;17.16;58.57;98971.02;4187861;83;28556;-79
2021/05/20 09:06:54;;;;;;;5.12;2.67;;;;;;;17.20;53.60;98965.84;4190794;84;28625;-78
2021/05/20 09:12:58;;;;;;;3.08;2.27;;;;;;;17.89;55.79;98961.17;4178958;84;28521;-79
2021/05/20 09:19:00;;;;;;;6.08;2.45;;;;;;;17.79;51.60;98961.49;4189576;84;28560;-80
2021/05/20 09:25:03;;;;;;;5.70;2.30;;;;;;;17.94;54.39;98963.30;4184429;84;28578;-79
2021/05/20 09:31:05;;;;;;;4.62;2.62;;;;;;;17.60;52.45;98966.77;4189853;84;28506;-79
2021/05/20 09:37:08;;;;;;;2.85;2.08;;;;;;;18.50;51.19;98962.63;4181631;84;28559;-79
2021/05/20 09:43:21;;;;;;;1.85;1.07;;;;;;;18.45;52.12;98974.94;4200167;84;28508;-79
2021/05/20 09:49:26;;;;;;;2.47;1.32;;;;;;;17.63;47.16;98974.89;4193374;84;28529;-79
2021/05/20 09:55:28;;;;;;;1.30;0.98;;;;;;;17.75;46.27;98978.64;4183535;84;28577;-84
2021/05/20 10:01:30;;;;;;;3.40;1.30;;;;;;;17.60;45.47;98971.37;4191512;84;28545;-83
2021/05/20 10:07:32;;;;;;;2.42;1.22;;;;;;;17.18;47.89;98982.94;4189913;84;28512;-80
2021/05/20 10:13:33;;;;;;;1.22;1.07;;;;;;;18.55;46.39;98975.39;4183328;84;28586;-84
2021/05/20 10:19:37;;;;;;;4.28;1.12;;;;;;;17.45;48.01;98974.98;4174319;84;28514;-84
2021/05/20 10:25:41;;;;;;;2.37;1.10;;;;;;;17.53;48.74;98973.84;4189585;84;28620;-77
2021/05/20 10:31:43;;;;;;;2.40;1.10;;;;;;;17.50;48.39;98953.23;4196956;84;28526;-83
2021/05/20 10:37:44;;;;;;;2.22;0.78;;;;;;;18.51;45.60;98945.20;4185310;84;28514;-81
2021/05/20 10:43:52;;;;;;;1.07;0.80;;;;;;;18.64;44.97;98949.17;4184206;84;28584;-80
2021/05/20 10:49:59;;;;;;;1.67;0.80;;;;;;;18.20;41.96;98955.55;4187098;84;28506;-76
2021/05/20 10:56:01;;;;;;;0.98;0.53;;;;;;;18.75;40.61;98944.45;4187127;84;28611;-87
2021/05/20 11:02:04;;;;;;;1.90;0.60;;;;;;;18.10;37.40;98959.14;4182329;83;28592;-83
2021/05/20 11:08:39;;;;;;;1.60;0.62;;;;;;;18.22;36.17;98959.62;4197542;84;28500;-77
2021/05/20 11:14:37;;;;;;;0.88;0.37;;;;;;;18.27;38.38;98953.29;4185229;84;28603;-89
2021/05/20 11:20:52;;;;;;;2.27;0.50;;;;;;;18.73;35.36;98949.91;4195768;84;28490;-83
2021/05/20 11:26:59;;;;;;;1.65;0.60;;;;;;;18.75;36.97;98951.80;4210096;83;28584;-79
2021/05/20 11:33:02;;;;;;;2.25;0.40;;;;;;;18.32;37.25;98951.91;4206742;84;28614;-81
2021/05/20 11:39:08;;;;;;;1.40;0.50;;;;;;;18.92;36.10;98945.36;4209276;84;28604;-80
2021/05/20 11:45:13;;;;;;;1.45;0.60;;;;;;;19.34;35.21;98931.28;4209876;84;28589;-79
2021/05/20 11:51:14;;;;;;;2.58;0.60;;;;;;;19.25;35.04;98939.28;4213688;84;28505;-79
2021/05/20 11:57:20;;;;;;;0.60;0.60;;;;;;;19.08;37.17;98931.05;4197666;84;28524;-78
2021/05/20 12:03:27;;;;;;;0.57;0.40;;;;;;;19.22;35.81;98946.15;4217825;84;28503;-78
2021/05/20 12:09:29;;;;;;;4.20;0.60;;;;;;;19.27;36.19;98950.72;4182825;84;28515;-78
2021/05/20 12:15:31;;;;;;;1.17;0.70;;;;;;;19.22;37.39;98951.59;4206289;84;28567;-77
2021/05/20 12:21:32;;;;;;;1.25;0.65;;;;;;;19.31;36.19;98943.58;4205452;83;28603;-77
2021/05/20 12:27:46;;;;;;;0.82;0.42;;;;;;;18.43;36.68;98973.06;4310762;80;28610;-77
2021/05/20 12:33:46;;;;;;;2.47;0.60;;;;;;;19.01;35.93;98959.75;4153214;83;28545;-77
2021/05/20 12:39:48;;;;;;;0.50;0.47;;;;;;;18.78;36.47;98964.29;4168847;83;28529;-77
2021/05/20 12:45:57;;;;;;;0.70;0.50;;;;;;;19.18;37.85;98961.44;4174293;83;28665;-77
2021/05/20 12:51:59;;;;;;;1.05;0.50;;;;;;;18.22;37.62;98977.84;4224676;82;28518;-77
2021/05/20 12:58:01;;;;;;;3.47;0.80;;;;;;;18.79;37.14;98960.47;4188803;83;28607;-77
2021/05/20 13:04:14;;;;;;;1.55;0.70;;;;;;;19.32;37.07;98962.91;4187821;84;28509;-78
2021/05/20 13:10:36;;;;;;;1.62;0.65;;;;;;;18.50;36.94;98958.55;4202122;84;28525;-77
2021/05/20 13:16:40;;;;;;;0.88;0.68;;;;;;;18.89;36.41;98951.36;4182825;84;28623;-76
2021/05/20 13:22:42;;;;;;;2.90;0.70;;;;;;;19.23;35.62;98951.03;4179256;84;28523;-77
2021/05/20 13:28:46;;;;;;;1.65;0.80;;;;;;;19.18;36.31;98950.54;4271739;82;28639;-78
2021/05/20 13:34:48;;;;;;;1.57;0.60;;;;;;;18.80;37.71;98963.45;4263035;82;28551;-79
2021/05/20 13:40:54;;;;;;;1.20;0.57;;;;;;;19.08;35.56;98952.84;4273285;82;28590;-80
2021/05/20 13:46:52;;;;;;;0.90;0.60;;;;;;;20.02;34.38;98943.47;4262682;82;28579;-78
2021/05/20 13:52:55;;;;;;;2.10;0.60;;;;;;;19.44;34.84;98947.51;4267627;82;28538;-79
2021/05/20 13:58:56;;;;;;;4.17;2.30;;;;;;;19.28;35.41;98956.43;4259063;82;28503;-79
2021/05/20 14:04:58;;;;;;;1.65;0.65;;;;;;;20.12;34.19;98945.21;4270750;82;28486;-78
2021/05/20 14:11:01;;;;;;;1.52;0.65;;;;;;;19.60;35.25;98948.12;4265517;82;28494;-77
2021/05/20 14:17:04;;;;;;;1.75;0.50;;;;;;;20.06;34.31;98965.77;4268423;82;28505;-80
2021/05/20 14:23:05;;;;;;;1.72;0.60;;;;;;;18.82;36.41;98978.15;4268705;82;28657;-79
2021/05/20 14:29:06;;;;;;;0.93;0.47;;;;;;;18.95;35.21;98966.56;4205901;82;28628;-79
2021/05/20 14:35:09;;;;;;;1.00;0.40;;;;;;;20.03;33.55;98960.89;4182665;84;28540;-80
2021/05/20 14:41:10;;;;;;;2.80;0.62;;;;;;;19.65;33.97;98950.76;4191056;84;28497;-79
2021/05/20 14:47:12;;;;;;;1.35;0.68;;;;;;;19.52;33.62;98963.77;4199953;83;28551;-78
2021/05/20 14:53:19;;;;;;;0.80;0.60;;;;;;;18.97;33.80;98959.48;4189342;84;28567;-79
2021/05/20 15:05:43;;;;;;;2.33;0.65;;;;;;;20.45;32.23;98946.05;4198885;84;28496;-79
2021/05/20 15:12:05;;;;;;;1.98;0.60;;;;;;;20.31;31.44;98953.39;4197862;84;28522;-80
2021/05/20 15:18:00;;;;;;;0.90;0.50;;;;;;;20.78;32.77;98948.48;4180682;84;28603;-80
2021/05/20 15:24:01;;;;;;;0.60;0.60;;;;;;;19.91;32.85;98946.86;4189733;83;28608;-80
2021/05/20 15:30:04;;;;;;;2.85;0.68;;;;;;;19.70;32.53;98943.06;4188504;84;28591;-80
2021/05/20 15:36:06;;;;;;;1.92;0.55;;;;;;;20.16;33.00;98944.89;4186483;84;28478;-80
2021/05/20 15:42:08;;;;;;;1.30;0.40;;;;;;;20.43;33.24;98952.91;4179042;84;28608;-85
2021/05/20 15:54:31;;;;;;;3.12;0.62;;;;;;;19.34;34.14;98951.16;4186188;84;28499;-78
2021/05/20 16:00:32;;;;;;;1.47;0.70;;;;;;;19.90;34.33;98955.61;4184812;84;28477;-80
2021/05/20 16:06:36;;;;;;;2.20;0.60;;;;;;;19.72;35.19;98961.30;4190364;84;28540;-77
2021/05/20 16:12:56;;;;;;;3.50;0.60;;;;;;;19.68;34.88;98963.55;4183871;84;28552;-80
2021/05/20 16:18:44;;;;;;;2.08;0.60;;;;;;;20.28;34.20;98958.06;4183456;84;28541;-80
2021/05/20 16:25:33;;;;;;;2.22;0.70;;;;;;;19.63;33.07;98977.52;4174177;83;28525;-80
2021/05/20 16:37:15;;;;;;;1.05;0.60;;;;;;;19.22;34.52;98982.11;4214966;83;28510;-80
2021/05/20 16:43:15;;;;;;;1.02;0.50;;;;;;;18.86;35.05;98983.27;4204581;84;28558;-78
2021/05/20 16:49:16;;;;;;;1.60;0.75;;;;;;;19.07;35.67;98975.74;4334467;81;28566;-76
2021/05/20 16:55:32;;;;;;;5.12;0.75;;;;;;;19.54;35.98;98976.55;4329821;81;28535;-81
2021/05/20 17:01:22;;;;;;;1.27;0.70;;;;;;;19.23;36.01;98982.38;4328814;81;28490;-81
2021/05/20 17:07:23;;;;;;;1.85;0.68;;;;;;;20.16;35.56;98985.27;4323441;81;28641;-77
2021/05/20 17:13:34;;;;;;;2.90;0.62;;;;;;;20.19;35.96;98978.41;4324948;81;28482;-79
2021/05/20 17:19:35;;;;;;;2.37;0.93;;;;;;;20.19;35.78;98988.75;4274473;81;270890;-78
2021/05/20 17:25:36;;;;;;;1.75;0.62;;;;;;;20.36;35.42;98993.42;4320742;81;28526;-78
2021/05/20 17:31:38;;;;;;;2.08;0.80;;;;;;;20.36;35.35;99001.07;4323453;81;28535;-78
2021/05/20 17:37:39;;;;;;;1.30;0.70;;;;;;;20.75;35.54;98998.52;4326741;81;28516;-77
2021/05/20 17:43:41;;;;;;;1.82;0.70;;;;;;;20.55;35.66;98999.66;4322727;81;28499;-77
2021/05/20 17:49:42;;;;;;;0.93;0.78;;;;;;;19.85;36.82;99008.07;4322949;81;28518;-78
2021/05/20 17:55:44;;;;;;;1.95;0.88;;;;;;;20.32;36.73;99011.77;4333867;81;28534;-78
2021/05/20 18:01:46;;;;;;;2.30;1.27;;;;;;;20.30;37.41;99019.45;4327816;81;28601;-80
2021/05/20 18:07:47;;;;;;;3.65;1.27;;;;;;;19.11;42.85;99042.73;4320860;81;28531;-77
2021/05/20 18:14:05;;;;;;;2.52;1.22;;;;;;;17.93;47.14;99050.61;4320942;81;28578;-77
2021/05/20 18:21:06;;;;;;;2.25;1.12;;;;;;;17.79;48.27;99046.32;4330269;81;28568;-77
2021/05/20 18:26:06;;;;;;;1.75;1.20;;;;;;;17.86;49.32;99046.84;4314577;81;28527;-76
2021/05/20 18:32:07;;;;;;;2.77;1.20;;;;;;;17.50;50.63;99053.80;4336649;81;28477;-77
2021/05/20 18:38:09;;;;;;;1.80;1.30;;;;;;;17.53;51.01;99058.67;4175283;84;28586;-76
2021/05/20 18:44:15;;;;;;;1.92;1.50;;;;;;;17.72;50.04;99049.91;4231702;82;28515;-76
2021/05/20 18:50:24;;;;;;;2.10;1.30;;;;;;;17.53;50.86;99060.03;4231356;82;28591;-76
2021/05/20 18:56:25;;;;;;;2.17;1.37;;;;;;;17.30;51.37;99075.02;4228768;82;28556;-76
2021/05/20 19:02:26;;;;;;;2.77;1.60;;;;;;;16.56;56.00;99083.73;4171766;83;28565;-75
2021/05/20 19:08:27;;;;;;;2.87;1.50;;;;;;;16.71;56.25;99092.44;4193828;83;28544;-75
2021/05/20 19:14:30;;;;;;;2.80;1.50;;;;;;;16.29;59.95;99092.07;4180405;83;28495;-77
2021/05/20 19:20:32;;;;;;;3.05;1.52;;;;;;;16.43;58.23;99104.05;4192512;84;28502;-78
2021/05/20 19:26:33;;;;;;;4.53;1.90;;;;;;;16.20;61.58;99097.21;4189736;84;28538;-77
2021/05/20 19:32:35;;;;;;;3.15;1.80;;;;;;;16.21;64.33;99101.55;4180064;84;28545;-77
2021/05/20 19:38:36;;;;;;;5.25;2.22;;;;;;;16.19;62.90;99094.75;4154061;85;28494;-75
2021/05/20 19:44:39;;;;;;;4.92;2.15;;;;;;;15.81;66.44;99105.70;4157953;84;28499;-76
2021/05/20 19:50:53;;;;;;;4.15;1.80;;;;;;;15.84;67.04;99111.42;4156650;84;28557;-75
2021/05/20 20:03:27;;;;;;;3.58;1.80;;;;;;;15.54;70.94;99116.95;4179650;84;28548;-76
2021/05/20 20:09:24;;;;;;;2.92;1.95;;;;;;;14.95;82.25;99117.37;4195971;84;28560;-79
2021/05/20 20:15:28;;;;;;;3.80;2.10;;;;;;;14.81;82.88;99123.75;4238270;82;28564;-79
2021/05/20 20:21:37;;;;;;;4.10;2.10;;;;;;;14.43;87.04;99134.97;4230524;82;28591;-79
2021/05/20 20:33:57;;;;;;;5.90;2.40;;;;;;;14.31;88.83;99141.87;4187695;82;28574;-78
2021/05/20 20:46:15;;;;;;;5.05;2.05;;;;;;;13.89;96.58;99148.67;4202450;83;28541;-75
2021/05/20 20:52:17;;;;;;;4.35;2.80;;;;;;;13.90;100.00;99153.02;4197631;84;28467;-79
2021/05/20 20:58:21;;;;;;;6.58;3.17;;;;;;;13.94;92.25;99152.27;4199436;84;28576;-79
2021/05/20 21:04:25;;;;;;;7.62;3.30;;;;;;;13.89;99.20;99143.27;4209135;84;28508;-78
2021/05/20 21:10:27;;;;;;;7.40;3.77;;;;;;;13.70;97.91;99153.02;4197172;84;28594;-77
2021/05/20 21:16:29;;;;;;;9.43;3.65;;;;;;;13.42;100.00;99159.34;4188455;84;28532;-78
2021/05/20 21:22:30;;;;;;;6.65;3.45;;;;;;;13.31;100.00;99159.18;4185858;84;28607;-79
2021/05/20 21:28:34;;;;;;;7.58;3.40;;;;;;;13.21;100.00;99158.47;4177913;84;28606;-78
2021/05/20 21:34:35;;;;;;;12.23;4.12;;;;;;;13.04;100.00;99154.42;4194687;84;28584;-79
2021/05/20 21:40:37;;;;;;;8.95;4.47;;;;;;;13.01;100.00;99149.52;4196104;84;28533;-78
2021/05/20 21:46:39;;;;;;;10.32;4.85;;;;;;;13.10;100.00;99141.83;4192958;84;28510;-78
2021/05/20 21:52:40;;;;;;;10.45;4.70;;;;;;;13.11;100.00;99151.04;4188583;83;28545;-78
2021/05/20 21:58:42;;;;;;;10.35;5.15;;;;;;;13.06;100.00;99153.64;4180825;83;28616;-77
2021/05/20 22:04:43;;;;;;;9.20;5.37;;;;;;;12.90;100.00;99154.46;4184857;84;28528;-79
2021/05/20 22:16:56;;;;;;;11.63;5.97;;;;;;;12.59;100.00;99162.00;4199051;84;28490;-78
2021/05/20 22:22:57;;;;;;;10.40;5.40;;;;;;;12.54;100.00;99151.94;4188249;84;28494;-78
2021/05/20 22:41:11;;;;;;;11.50;6.17;;;;;;;12.81;100.00;99158.91;3951814;87;28497;-77
2021/05/20 22:47:13;;;;;;;10.85;6.17;;;;;;;12.63;100.00;99163.98;3960096;89;28526;-78
2021/05/20 22:53:14;;;;;;;13.38;7.53;;;;;;;12.47;100.00;99162.87;3973850;89;28596;-78
2021/05/20 22:59:15;;;;;;;9.80;5.78;;;;;;;12.24;100.00;99155.16;3947283;89;28557;-78
2021/05/20 23:05:17;;;;;;;13.75;7.03;;;;;;;12.08;100.00;99151.86;3892992;89;28530;-78
2021/05/20 23:11:18;;;;;;;12.07;6.37;;;;;;;11.97;100.00;99155.66;3923261;89;28604;-77
2021/05/20 23:17:19;;;;;;;10.05;6.37;;;;;;;11.97;100.00;99156.17;4193255;82;28533;-77
2021/05/20 23:23:21;;;;;;;12.03;6.78;;;;;;;11.85;100.00;99152.17;4295483;82;28506;-78
2021/05/20 23:29:22;;;;;;;15.45;7.42;;;;;;;11.89;100.00;99146.59;4294295;81;28600;-78
2021/05/20 23:35:23;;;;;;;13.38;7.80;;;;;;;11.73;100.00;99149.48;4301130;81;28553;-78
2021/05/20 23:41:37;;;;;;;15.95;8.33;;;;;;;11.71;100.00;99152.43;4301461;81;28593;-79
2021/05/20 23:47:34;;;;;;;13.58;8.13;;;;;;;11.55;100.00;99147.75;4339690;80;28495;-78
2021/05/20 23:53:35;;;;;;;12.95;7.67;;;;;;;11.53;100.00;99146.63;4218662;83;28549;-78
2021/05/20 23:59:37;;;;;;;11.70;6.78;;;;;;;11.47;100.00;99151.62;4161991;84;28576;-78
